sensor_id;sensor_type;location;lat;lon;timestamp;P1;durP1;ratioP1;P2;durP2;ratioP2
48241;SDS011;34041;51.812;4.622;2023-10-08T00:00:59;25.08;;;7.93;;
48241;SDS011;34041;51.812;4.622;2023-10-08T00:04:02;17.58;;;5.47;;
48241;SDS011;34041;51.812;4.622;2023-10-08T00:07:04;18.38;;;6.25;;
48241;SDS011;34041;51.812;4.622;2023-10-08T00:10:07;23.70;;;6.00;;
48241;SDS011;34041;51.812;4.622;2023-10-08T00:13:09;19.52;;;6.72;;
48241;SDS011;34041;51.812;4.622;2023-10-08T00:16:10;19.92;;;6.50;;
48241;SDS011;34041;51.812;4.622;2023-10-08T00:19:11;22.75;;;6.85;;
48241;SDS011;34041;51.812;4.622;2023-10-08T00:22:13;21.70;;;7.03;;
48241;SDS011;34041;51.812;4.622;2023-10-08T00:25:18;18.65;;;5.95;;
48241;SDS011;34041;51.812;4.622;2023-10-08T00:28:19;18.05;;;5.55;;
48241;SDS011;34041;51.812;4.622;2023-10-08T00:31:21;20.92;;;5.57;;
48241;SDS011;34041;51.812;4.622;2023-10-08T00:34:24;18.00;;;6.05;;
48241;SDS011;34041;51.812;4.622;2023-10-08T00:37:24;14.70;;;5.53;;
48241;SDS011;34041;51.812;4.622;2023-10-08T00:40:36;22.75;;;6.78;;
48241;SDS011;34041;51.812;4.622;2023-10-08T00:43:38;20.70;;;6.15;;
48241;SDS011;34041;51.812;4.622;2023-10-08T00:46:39;22.10;;;7.43;;
48241;SDS011;34041;51.812;4.622;2023-10-08T00:49:47;15.02;;;5.65;;
48241;SDS011;34041;51.812;4.622;2023-10-08T00:56:10;31.67;;;7.35;;
48241;SDS011;34041;51.812;4.622;2023-10-08T00:59:18;18.55;;;7.93;;
48241;SDS011;34041;51.812;4.622;2023-10-08T01:02:30;21.00;;;7.70;;
48241;SDS011;34041;51.812;4.622;2023-10-08T01:05:46;17.00;;;5.68;;
48241;SDS011;34041;51.812;4.622;2023-10-08T01:08:49;22.75;;;8.10;;
48241;SDS011;34041;51.812;4.622;2023-10-08T01:15:30;21.10;;;7.63;;
48241;SDS011;34041;51.812;4.622;2023-10-08T01:18:30;16.13;;;6.93;;
48241;SDS011;34041;51.812;4.622;2023-10-08T01:21:32;21.02;;;7.13;;
48241;SDS011;34041;51.812;4.622;2023-10-08T01:24:40;23.15;;;7.40;;
48241;SDS011;34041;51.812;4.622;2023-10-08T01:27:40;22.90;;;7.67;;
48241;SDS011;34041;51.812;4.622;2023-10-08T01:30:43;24.77;;;7.33;;
48241;SDS011;34041;51.812;4.622;2023-10-08T01:33:47;20.63;;;7.93;;
48241;SDS011;34041;51.812;4.622;2023-10-08T01:36:50;21.10;;;8.85;;
48241;SDS011;34041;51.812;4.622;2023-10-08T01:39:50;19.50;;;8.50;;
48241;SDS011;34041;51.812;4.622;2023-10-08T01:42:51;19.43;;;8.33;;
48241;SDS011;34041;51.812;4.622;2023-10-08T01:45:51;25.65;;;9.48;;
48241;SDS011;34041;51.812;4.622;2023-10-08T01:48:52;21.83;;;8.27;;
48241;SDS011;34041;51.812;4.622;2023-10-08T01:52:08;17.30;;;6.60;;
48241;SDS011;34041;51.812;4.622;2023-10-08T01:55:18;23.00;;;7.32;;
48241;SDS011;34041;51.812;4.622;2023-10-08T01:58:19;18.00;;;7.82;;
48241;SDS011;34041;51.812;4.622;2023-10-08T02:01:20;24.77;;;7.60;;
48241;SDS011;34041;51.812;4.622;2023-10-08T02:04:20;27.35;;;6.93;;
48241;SDS011;34041;51.812;4.622;2023-10-08T02:07:21;16.17;;;7.13;;
48241;SDS011;34041;51.812;4.622;2023-10-08T02:10:21;20.10;;;5.73;;
48241;SDS011;34041;51.812;4.622;2023-10-08T02:13:22;19.75;;;6.68;;
48241;SDS011;34041;51.812;4.622;2023-10-08T02:16:22;18.97;;;6.63;;
48241;SDS011;34041;51.812;4.622;2023-10-08T02:19:22;16.33;;;7.03;;
48241;SDS011;34041;51.812;4.622;2023-10-08T02:22:29;23.20;;;6.15;;
48241;SDS011;34041;51.812;4.622;2023-10-08T02:25:29;18.98;;;6.75;;
48241;SDS011;34041;51.812;4.622;2023-10-08T02:28:29;16.50;;;6.63;;
48241;SDS011;34041;51.812;4.622;2023-10-08T02:31:29;23.90;;;6.43;;
48241;SDS011;34041;51.812;4.622;2023-10-08T02:34:30;27.48;;;7.00;;
48241;SDS011;34041;51.812;4.622;2023-10-08T02:37:30;17.88;;;6.50;;
48241;SDS011;34041;51.812;4.622;2023-10-08T02:40:30;16.88;;;7.75;;
48241;SDS011;34041;51.812;4.622;2023-10-08T02:43:31;21.43;;;6.73;;
48241;SDS011;34041;51.812;4.622;2023-10-08T02:46:31;26.33;;;7.87;;
48241;SDS011;34041;51.812;4.622;2023-10-08T02:49:33;15.48;;;6.90;;
48241;SDS011;34041;51.812;4.622;2023-10-08T02:52:34;26.00;;;8.70;;
48241;SDS011;34041;51.812;4.622;2023-10-08T02:55:35;21.88;;;8.50;;
48241;SDS011;34041;51.812;4.622;2023-10-08T02:58:35;20.10;;;7.50;;
48241;SDS011;34041;51.812;4.622;2023-10-08T03:01:36;21.25;;;8.27;;
48241;SDS011;34041;51.812;4.622;2023-10-08T03:04:43;20.77;;;8.10;;
48241;SDS011;34041;51.812;4.622;2023-10-08T03:07:46;15.40;;;5.88;;
48241;SDS011;34041;51.812;4.622;2023-10-08T03:10:51;11.32;;;6.90;;
48241;SDS011;34041;51.812;4.622;2023-10-08T03:14:03;21.77;;;10.00;;
48241;SDS011;34041;51.812;4.622;2023-10-08T03:17:03;17.70;;;7.75;;
48241;SDS011;34041;51.812;4.622;2023-10-08T03:20:07;21.20;;;7.78;;
48241;SDS011;34041;51.812;4.622;2023-10-08T03:23:31;15.07;;;7.38;;
48241;SDS011;34041;51.812;4.622;2023-10-08T03:26:34;14.63;;;7.22;;
48241;SDS011;34041;51.812;4.622;2023-10-08T03:29:36;18.40;;;7.60;;
48241;SDS011;34041;51.812;4.622;2023-10-08T03:32:42;25.05;;;9.32;;
48241;SDS011;34041;51.812;4.622;2023-10-08T03:35:44;24.77;;;6.82;;
48241;SDS011;34041;51.812;4.622;2023-10-08T03:38:44;19.67;;;8.53;;
48241;SDS011;34041;51.812;4.622;2023-10-08T03:41:46;16.13;;;7.82;;
48241;SDS011;34041;51.812;4.622;2023-10-08T03:45:06;24.27;;;9.43;;
48241;SDS011;34041;51.812;4.622;2023-10-08T03:48:12;24.25;;;9.07;;
48241;SDS011;34041;51.812;4.622;2023-10-08T03:51:15;19.85;;;9.55;;
48241;SDS011;34041;51.812;4.622;2023-10-08T03:54:20;16.00;;;7.60;;
48241;SDS011;34041;51.812;4.622;2023-10-08T03:57:29;19.50;;;8.50;;
48241;SDS011;34041;51.812;4.622;2023-10-08T04:00:42;18.00;;;8.52;;
48241;SDS011;34041;51.812;4.622;2023-10-08T04:03:45;24.70;;;9.20;;
48241;SDS011;34041;51.812;4.622;2023-10-08T04:06:52;19.63;;;9.50;;
48241;SDS011;34041;51.812;4.622;2023-10-08T04:09:58;22.98;;;10.30;;
48241;SDS011;34041;51.812;4.622;2023-10-08T04:13:07;16.20;;;9.93;;
48241;SDS011;34041;51.812;4.622;2023-10-08T04:16:08;26.15;;;10.10;;
48241;SDS011;34041;51.812;4.622;2023-10-08T04:19:09;24.93;;;10.67;;
48241;SDS011;34041;51.812;4.622;2023-10-08T04:22:09;17.63;;;9.00;;
48241;SDS011;34041;51.812;4.622;2023-10-08T04:25:15;24.67;;;9.48;;
48241;SDS011;34041;51.812;4.622;2023-10-08T04:28:19;19.33;;;8.65;;
48241;SDS011;34041;51.812;4.622;2023-10-08T04:31:20;19.52;;;9.45;;
48241;SDS011;34041;51.812;4.622;2023-10-08T04:34:24;21.35;;;9.15;;
48241;SDS011;34041;51.812;4.622;2023-10-08T04:37:26;24.00;;;10.52;;
48241;SDS011;34041;51.812;4.622;2023-10-08T04:40:32;17.75;;;9.43;;
48241;SDS011;34041;51.812;4.622;2023-10-08T04:43:41;26.15;;;9.98;;
48241;SDS011;34041;51.812;4.622;2023-10-08T04:46:43;17.23;;;8.48;;
48241;SDS011;34041;51.812;4.622;2023-10-08T04:49:46;22.30;;;8.95;;
48241;SDS011;34041;51.812;4.622;2023-10-08T04:52:46;23.87;;;10.03;;
48241;SDS011;34041;51.812;4.622;2023-10-08T04:56:01;19.67;;;9.43;;
48241;SDS011;34041;51.812;4.622;2023-10-08T04:59:16;18.40;;;9.95;;
48241;SDS011;34041;51.812;4.622;2023-10-08T05:02:21;19.08;;;10.00;;
48241;SDS011;34041;51.812;4.622;2023-10-08T05:05:49;22.90;;;8.05;;
48241;SDS011;34041;51.812;4.622;2023-10-08T05:09:09;21.45;;;9.13;;
48241;SDS011;34041;51.812;4.622;2023-10-08T05:12:18;24.92;;;10.27;;
48241;SDS011;34041;51.812;4.622;2023-10-08T05:15:37;21.25;;;10.25;;
48241;SDS011;34041;51.812;4.622;2023-10-08T05:18:42;20.35;;;8.82;;
48241;SDS011;34041;51.812;4.622;2023-10-08T05:22:08;21.38;;;7.50;;
48241;SDS011;34041;51.812;4.622;2023-10-08T05:25:41;15.25;;;9.10;;
48241;SDS011;34041;51.812;4.622;2023-10-08T05:28:57;22.63;;;9.40;;
48241;SDS011;34041;51.812;4.622;2023-10-08T05:32:23;22.48;;;8.43;;
48241;SDS011;34041;51.812;4.622;2023-10-08T05:35:52;24.30;;;10.38;;
48241;SDS011;34041;51.812;4.622;2023-10-08T05:39:02;16.60;;;8.48;;
48241;SDS011;34041;51.812;4.622;2023-10-08T05:42:23;21.42;;;9.35;;
48241;SDS011;34041;51.812;4.622;2023-10-08T05:45:30;21.33;;;11.23;;
48241;SDS011;34041;51.812;4.622;2023-10-08T05:48:31;21.00;;;10.60;;
48241;SDS011;34041;51.812;4.622;2023-10-08T05:51:38;20.52;;;10.93;;
48241;SDS011;34041;51.812;4.622;2023-10-08T05:54:48;24.08;;;10.50;;
48241;SDS011;34041;51.812;4.622;2023-10-08T05:58:14;22.70;;;10.60;;
48241;SDS011;34041;51.812;4.622;2023-10-08T06:01:24;27.02;;;10.13;;
48241;SDS011;34041;51.812;4.622;2023-10-08T06:04:40;21.80;;;10.65;;
48241;SDS011;34041;51.812;4.622;2023-10-08T06:07:53;20.45;;;10.15;;
48241;SDS011;34041;51.812;4.622;2023-10-08T06:10:54;26.13;;;10.52;;
48241;SDS011;34041;51.812;4.622;2023-10-08T06:13:58;21.40;;;9.98;;
48241;SDS011;34041;51.812;4.622;2023-10-08T06:17:00;22.60;;;10.10;;
48241;SDS011;34041;51.812;4.622;2023-10-08T06:20:13;26.65;;;10.75;;
48241;SDS011;34041;51.812;4.622;2023-10-08T06:23:17;23.95;;;10.65;;
48241;SDS011;34041;51.812;4.622;2023-10-08T06:26:20;20.08;;;9.55;;
48241;SDS011;34041;51.812;4.622;2023-10-08T06:29:24;22.05;;;10.35;;
48241;SDS011;34041;51.812;4.622;2023-10-08T06:32:27;26.30;;;10.30;;
48241;SDS011;34041;51.812;4.622;2023-10-08T06:35:31;13.55;;;8.05;;
48241;SDS011;34041;51.812;4.622;2023-10-08T06:38:33;23.17;;;10.30;;
48241;SDS011;34041;51.812;4.622;2023-10-08T12:30:01;20.67;;;12.07;;
48241;SDS011;34041;51.812;4.622;2023-10-08T12:33:03;18.15;;;9.88;;
48241;SDS011;34041;51.812;4.622;2023-10-08T12:36:06;21.48;;;10.88;;
48241;SDS011;34041;51.812;4.622;2023-10-08T12:39:12;23.65;;;11.35;;
48241;SDS011;34041;51.812;4.622;2023-10-08T12:42:15;28.10;;;11.70;;
48241;SDS011;34041;51.812;4.622;2023-10-08T12:45:16;22.03;;;11.43;;
48241;SDS011;34041;51.812;4.622;2023-10-08T12:48:21;20.23;;;10.18;;
48241;SDS011;34041;51.812;4.622;2023-10-08T12:51:21;22.08;;;11.23;;
48241;SDS011;34041;51.812;4.622;2023-10-08T12:54:25;19.23;;;9.97;;
48241;SDS011;34041;51.812;4.622;2023-10-08T12:57:30;18.42;;;11.00;;
48241;SDS011;34041;51.812;4.622;2023-10-08T13:00:33;16.90;;;10.20;;
48241;SDS011;34041;51.812;4.622;2023-10-08T13:03:33;22.30;;;10.23;;
48241;SDS011;34041;51.812;4.622;2023-10-08T13:06:40;16.58;;;9.85;;
48241;SDS011;34041;51.812;4.622;2023-10-08T13:09:45;17.85;;;10.18;;
48241;SDS011;34041;51.812;4.622;2023-10-08T13:12:45;12.03;;;9.70;;
48241;SDS011;34041;51.812;4.622;2023-10-08T13:15:45;12.48;;;9.25;;
48241;SDS011;34041;51.812;4.622;2023-10-08T13:18:46;21.30;;;10.83;;
48241;SDS011;34041;51.812;4.622;2023-10-08T13:21:46;17.30;;;9.68;;
48241;SDS011;34041;51.812;4.622;2023-10-08T13:24:47;19.67;;;11.27;;
48241;SDS011;34041;51.812;4.622;2023-10-08T13:27:48;26.05;;;11.48;;
48241;SDS011;34041;51.812;4.622;2023-10-08T13:30:49;16.70;;;10.03;;
48241;SDS011;34041;51.812;4.622;2023-10-08T13:33:52;22.67;;;11.77;;
48241;SDS011;34041;51.812;4.622;2023-10-08T13:36:56;22.00;;;12.88;;
48241;SDS011;34041;51.812;4.622;2023-10-08T13:39:56;27.45;;;12.73;;
48241;SDS011;34041;51.812;4.622;2023-10-08T13:42:56;28.70;;;12.10;;
48241;SDS011;34041;51.812;4.622;2023-10-08T13:45:57;19.45;;;11.35;;
48241;SDS011;34041;51.812;4.622;2023-10-08T13:48:57;20.13;;;12.07;;
48241;SDS011;34041;51.812;4.622;2023-10-08T13:51:58;19.10;;;10.65;;
48241;SDS011;34041;51.812;4.622;2023-10-08T13:54:58;24.02;;;13.50;;
48241;SDS011;34041;51.812;4.622;2023-10-08T13:58:00;24.30;;;13.20;;
48241;SDS011;34041;51.812;4.622;2023-10-08T14:01:02;23.15;;;14.00;;
48241;SDS011;34041;51.812;4.622;2023-10-08T14:04:13;22.45;;;12.75;;
48241;SDS011;34041;51.812;4.622;2023-10-08T14:07:19;25.55;;;13.88;;
48241;SDS011;34041;51.812;4.622;2023-10-08T14:10:21;23.92;;;12.77;;
48241;SDS011;34041;51.812;4.622;2023-10-08T14:13:30;20.55;;;12.20;;
48241;SDS011;34041;51.812;4.622;2023-10-08T14:16:31;23.75;;;12.93;;
48241;SDS011;34041;51.812;4.622;2023-10-08T14:19:32;27.75;;;13.55;;
48241;SDS011;34041;51.812;4.622;2023-10-08T14:22:51;23.83;;;13.23;;
48241;SDS011;34041;51.812;4.622;2023-10-08T14:25:57;21.83;;;12.95;;
48241;SDS011;34041;51.812;4.622;2023-10-08T14:29:03;21.75;;;13.40;;
48241;SDS011;34041;51.812;4.622;2023-10-08T14:32:15;20.65;;;13.07;;
48241;SDS011;34041;51.812;4.622;2023-10-08T14:35:15;21.40;;;14.02;;
48241;SDS011;34041;51.812;4.622;2023-10-08T14:38:34;27.55;;;12.70;;
48241;SDS011;34041;51.812;4.622;2023-10-08T14:41:53;24.58;;;13.73;;
48241;SDS011;34041;51.812;4.622;2023-10-08T14:45:12;23.63;;;13.10;;
48241;SDS011;34041;51.812;4.622;2023-10-08T14:48:13;16.52;;;11.10;;
48241;SDS011;34041;51.812;4.622;2023-10-08T14:51:13;23.55;;;13.05;;
48241;SDS011;34041;51.812;4.622;2023-10-08T14:54:19;25.98;;;13.27;;
48241;SDS011;34041;51.812;4.622;2023-10-08T14:57:20;25.63;;;13.85;;
48241;SDS011;34041;51.812;4.622;2023-10-08T15:00:21;23.67;;;13.67;;
48241;SDS011;34041;51.812;4.622;2023-10-08T15:03:24;22.20;;;14.32;;
48241;SDS011;34041;51.812;4.622;2023-10-08T15:06:26;27.67;;;14.40;;
48241;SDS011;34041;51.812;4.622;2023-10-08T15:09:27;26.50;;;14.10;;
48241;SDS011;34041;51.812;4.622;2023-10-08T15:12:28;21.85;;;13.65;;
48241;SDS011;34041;51.812;4.622;2023-10-08T15:15:28;26.63;;;15.50;;
48241;SDS011;34041;51.812;4.622;2023-10-08T15:18:34;28.65;;;15.75;;
48241;SDS011;34041;51.812;4.622;2023-10-08T15:21:42;24.75;;;15.07;;
48241;SDS011;34041;51.812;4.622;2023-10-08T15:24:43;27.05;;;17.40;;
48241;SDS011;34041;51.812;4.622;2023-10-08T15:27:45;28.13;;;15.85;;
48241;SDS011;34041;51.812;4.622;2023-10-08T15:30:47;26.00;;;15.40;;
48241;SDS011;34041;51.812;4.622;2023-10-08T15:33:47;22.67;;;14.13;;
48241;SDS011;34041;51.812;4.622;2023-10-08T15:36:48;28.50;;;14.63;;
48241;SDS011;34041;51.812;4.622;2023-10-08T15:39:48;30.88;;;17.83;;
48241;SDS011;34041;51.812;4.622;2023-10-08T15:42:50;23.70;;;16.58;;
48241;SDS011;34041;51.812;4.622;2023-10-08T15:45:51;25.27;;;15.25;;
48241;SDS011;34041;51.812;4.622;2023-10-08T15:48:52;32.22;;;17.20;;
48241;SDS011;34041;51.812;4.622;2023-10-08T15:51:53;23.13;;;15.95;;
48241;SDS011;34041;51.812;4.622;2023-10-08T15:54:53;27.35;;;15.13;;
48241;SDS011;34041;51.812;4.622;2023-10-08T15:57:53;26.15;;;14.75;;
48241;SDS011;34041;51.812;4.622;2023-10-08T16:00:54;24.98;;;15.63;;
48241;SDS011;34041;51.812;4.622;2023-10-08T16:03:54;30.80;;;16.77;;
48241;SDS011;34041;51.812;4.622;2023-10-08T16:06:54;26.90;;;17.23;;
48241;SDS011;34041;51.812;4.622;2023-10-08T16:09:55;23.65;;;15.90;;
48241;SDS011;34041;51.812;4.622;2023-10-08T16:12:55;31.33;;;17.48;;
48241;SDS011;34041;51.812;4.622;2023-10-08T16:15:56;28.35;;;16.85;;
48241;SDS011;34041;51.812;4.622;2023-10-08T16:18:59;29.42;;;18.38;;
48241;SDS011;34041;51.812;4.622;2023-10-08T16:22:00;35.58;;;18.05;;
48241;SDS011;34041;51.812;4.622;2023-10-08T16:25:01;33.08;;;16.90;;
48241;SDS011;34041;51.812;4.622;2023-10-08T16:28:01;25.37;;;17.03;;
48241;SDS011;34041;51.812;4.622;2023-10-08T16:31:03;26.38;;;16.40;;
48241;SDS011;34041;51.812;4.622;2023-10-08T16:34:09;28.23;;;17.88;;
48241;SDS011;34041;51.812;4.622;2023-10-08T16:37:11;40.25;;;19.13;;
48241;SDS011;34041;51.812;4.622;2023-10-08T16:40:14;26.42;;;17.17;;
48241;SDS011;34041;51.812;4.622;2023-10-08T16:43:16;27.80;;;17.85;;
48241;SDS011;34041;51.812;4.622;2023-10-08T16:46:16;34.95;;;19.52;;
48241;SDS011;34041;51.812;4.622;2023-10-08T16:49:16;27.63;;;18.25;;
48241;SDS011;34041;51.812;4.622;2023-10-08T16:52:17;36.30;;;18.92;;
48241;SDS011;34041;51.812;4.622;2023-10-08T16:55:17;24.50;;;16.40;;
48241;SDS011;34041;51.812;4.622;2023-10-08T16:58:18;31.47;;;17.53;;
48241;SDS011;34041;51.812;4.622;2023-10-08T17:01:18;27.17;;;15.98;;
48241;SDS011;34041;51.812;4.622;2023-10-08T17:04:18;24.83;;;17.92;;
48241;SDS011;34041;51.812;4.622;2023-10-08T17:07:19;30.80;;;18.80;;
48241;SDS011;34041;51.812;4.622;2023-10-08T17:10:19;23.23;;;15.60;;
48241;SDS011;34041;51.812;4.622;2023-10-08T17:13:20;24.65;;;18.15;;
48241;SDS011;34041;51.812;4.622;2023-10-08T17:16:20;24.40;;;14.80;;
48241;SDS011;34041;51.812;4.622;2023-10-08T17:19:21;33.15;;;16.67;;
48241;SDS011;34041;51.812;4.622;2023-10-08T17:22:23;24.52;;;16.13;;
48241;SDS011;34041;51.812;4.622;2023-10-08T17:25:25;26.77;;;16.35;;
48241;SDS011;34041;51.812;4.622;2023-10-08T17:28:25;25.97;;;15.83;;
48241;SDS011;34041;51.812;4.622;2023-10-08T17:31:25;31.38;;;15.68;;
48241;SDS011;34041;51.812;4.622;2023-10-08T17:34:27;28.50;;;14.93;;
48241;SDS011;34041;51.812;4.622;2023-10-08T17:37:28;25.37;;;16.83;;
48241;SDS011;34041;51.812;4.622;2023-10-08T17:40:28;27.20;;;16.08;;
48241;SDS011;34041;51.812;4.622;2023-10-08T17:43:29;21.42;;;14.40;;
48241;SDS011;34041;51.812;4.622;2023-10-08T17:46:29;24.83;;;16.57;;
48241;SDS011;34041;51.812;4.622;2023-10-08T17:49:30;31.92;;;16.23;;
48241;SDS011;34041;51.812;4.622;2023-10-08T17:52:35;25.08;;;17.38;;
48241;SDS011;34041;51.812;4.622;2023-10-08T17:55:36;22.33;;;14.52;;
48241;SDS011;34041;51.812;4.622;2023-10-08T17:58:36;23.20;;;16.30;;
48241;SDS011;34041;51.812;4.622;2023-10-08T18:01:38;22.08;;;15.73;;
48241;SDS011;34041;51.812;4.622;2023-10-08T18:04:39;23.30;;;16.85;;
48241;SDS011;34041;51.812;4.622;2023-10-08T18:07:39;28.97;;;17.87;;
48241;SDS011;34041;51.812;4.622;2023-10-08T18:10:40;21.58;;;15.80;;
48241;SDS011;34041;51.812;4.622;2023-10-08T18:13:40;25.80;;;17.58;;
48241;SDS011;34041;51.812;4.622;2023-10-08T18:16:41;22.48;;;15.50;;
48241;SDS011;34041;51.812;4.622;2023-10-08T18:19:41;25.60;;;16.45;;
48241;SDS011;34041;51.812;4.622;2023-10-08T18:22:44;25.40;;;17.13;;
48241;SDS011;34041;51.812;4.622;2023-10-08T18:25:45;24.50;;;17.23;;
48241;SDS011;34041;51.812;4.622;2023-10-08T18:28:45;23.90;;;15.85;;
48241;SDS011;34041;51.812;4.622;2023-10-08T18:31:47;28.43;;;18.00;;
48241;SDS011;34041;51.812;4.622;2023-10-08T18:34:48;27.15;;;17.08;;
48241;SDS011;34041;51.812;4.622;2023-10-08T18:37:49;26.75;;;16.35;;
48241;SDS011;34041;51.812;4.622;2023-10-08T18:40:55;26.35;;;17.40;;
48241;SDS011;34041;51.812;4.622;2023-10-08T18:43:55;24.45;;;18.25;;
48241;SDS011;34041;51.812;4.622;2023-10-08T18:46:55;28.40;;;17.67;;
48241;SDS011;34041;51.812;4.622;2023-10-08T18:49:56;24.20;;;17.38;;
48241;SDS011;34041;51.812;4.622;2023-10-08T18:52:56;28.17;;;19.23;;
48241;SDS011;34041;51.812;4.622;2023-10-08T18:56:15;33.33;;;19.25;;
48241;SDS011;34041;51.812;4.622;2023-10-08T18:59:15;30.50;;;21.50;;
48241;SDS011;34041;51.812;4.622;2023-10-08T19:02:15;30.17;;;21.15;;
48241;SDS011;34041;51.812;4.622;2023-10-08T19:05:15;30.80;;;22.13;;
48241;SDS011;34041;51.812;4.622;2023-10-08T19:08:19;27.23;;;22.33;;
48241;SDS011;34041;51.812;4.622;2023-10-08T19:11:20;31.17;;;21.65;;
48241;SDS011;34041;51.812;4.622;2023-10-08T19:14:23;29.33;;;21.77;;
48241;SDS011;34041;51.812;4.622;2023-10-08T19:17:24;29.83;;;20.25;;
48241;SDS011;34041;51.812;4.622;2023-10-08T19:20:24;30.10;;;20.85;;
48241;SDS011;34041;51.812;4.622;2023-10-08T19:23:24;36.58;;;21.80;;
48241;SDS011;34041;51.812;4.622;2023-10-08T19:26:28;29.08;;;20.27;;
48241;SDS011;34041;51.812;4.622;2023-10-08T19:29:28;28.50;;;20.25;;
48241;SDS011;34041;51.812;4.622;2023-10-08T19:32:29;33.38;;;22.33;;
48241;SDS011;34041;51.812;4.622;2023-10-08T19:35:29;33.63;;;21.87;;
48241;SDS011;34041;51.812;4.622;2023-10-08T19:38:30;33.42;;;23.58;;
48241;SDS011;34041;51.812;4.622;2023-10-08T19:41:30;34.65;;;22.48;;
48241;SDS011;34041;51.812;4.622;2023-10-08T19:44:31;36.22;;;23.77;;
48241;SDS011;34041;51.812;4.622;2023-10-08T19:47:32;34.40;;;22.20;;
48241;SDS011;34041;51.812;4.622;2023-10-08T19:50:34;40.42;;;23.60;;
48241;SDS011;34041;51.812;4.622;2023-10-08T19:53:36;31.63;;;21.23;;
48241;SDS011;34041;51.812;4.622;2023-10-08T19:56:36;30.10;;;21.47;;
48241;SDS011;34041;51.812;4.622;2023-10-08T19:59:36;33.63;;;20.97;;
48241;SDS011;34041;51.812;4.622;2023-10-08T20:02:38;34.90;;;22.50;;
48241;SDS011;34041;51.812;4.622;2023-10-08T20:05:38;41.77;;;24.10;;
48241;SDS011;34041;51.812;4.622;2023-10-08T20:08:39;38.53;;;23.15;;
48241;SDS011;34041;51.812;4.622;2023-10-08T20:11:39;34.92;;;24.15;;
48241;SDS011;34041;51.812;4.622;2023-10-08T20:14:39;31.30;;;22.05;;
48241;SDS011;34041;51.812;4.622;2023-10-08T20:17:41;35.30;;;25.45;;
48241;SDS011;34041;51.812;4.622;2023-10-08T20:20:44;36.13;;;24.23;;
48241;SDS011;34041;51.812;4.622;2023-10-08T20:23:44;33.15;;;22.88;;
48241;SDS011;34041;51.812;4.622;2023-10-08T20:26:45;38.63;;;24.55;;
48241;SDS011;34041;51.812;4.622;2023-10-08T20:29:46;36.20;;;24.90;;
48241;SDS011;34041;51.812;4.622;2023-10-08T20:32:46;41.80;;;26.07;;
48241;SDS011;34041;51.812;4.622;2023-10-08T20:35:50;36.75;;;22.17;;
48241;SDS011;34041;51.812;4.622;2023-10-08T20:38:51;39.17;;;23.00;;
48241;SDS011;34041;51.812;4.622;2023-10-08T20:41:51;41.22;;;23.65;;
48241;SDS011;34041;51.812;4.622;2023-10-08T20:44:52;35.05;;;24.10;;
48241;SDS011;34041;51.812;4.622;2023-10-08T20:47:54;44.00;;;26.92;;
48241;SDS011;34041;51.812;4.622;2023-10-08T20:50:55;42.10;;;24.75;;
48241;SDS011;34041;51.812;4.622;2023-10-08T20:53:55;37.20;;;23.38;;
48241;SDS011;34041;51.812;4.622;2023-10-08T20:56:56;37.53;;;24.73;;
48241;SDS011;34041;51.812;4.622;2023-10-08T20:59:57;38.88;;;25.13;;
48241;SDS011;34041;51.812;4.622;2023-10-08T21:03:03;40.07;;;25.70;;
48241;SDS011;34041;51.812;4.622;2023-10-08T21:06:04;42.25;;;25.50;;
48241;SDS011;34041;51.812;4.622;2023-10-08T21:09:05;37.22;;;23.10;;
48241;SDS011;34041;51.812;4.622;2023-10-08T21:12:11;33.10;;;24.95;;
48241;SDS011;34041;51.812;4.622;2023-10-08T21:15:13;35.30;;;23.13;;
48241;SDS011;34041;51.812;4.622;2023-10-08T21:18:14;38.85;;;25.23;;
48241;SDS011;34041;51.812;4.622;2023-10-08T21:21:17;32.50;;;23.05;;
48241;SDS011;34041;51.812;4.622;2023-10-08T21:24:18;47.83;;;22.90;;
48241;SDS011;34041;51.812;4.622;2023-10-08T21:27:18;33.90;;;21.50;;
48241;SDS011;34041;51.812;4.622;2023-10-08T21:30:18;32.33;;;23.83;;
48241;SDS011;34041;51.812;4.622;2023-10-08T21:33:19;29.70;;;21.73;;
48241;SDS011;34041;51.812;4.622;2023-10-08T21:36:19;28.93;;;21.33;;
48241;SDS011;34041;51.812;4.622;2023-10-08T21:39:19;31.13;;;21.00;;
48241;SDS011;34041;51.812;4.622;2023-10-08T21:42:20;39.15;;;21.60;;
48241;SDS011;34041;51.812;4.622;2023-10-08T21:45:20;34.58;;;22.98;;
48241;SDS011;34041;51.812;4.622;2023-10-08T21:48:22;34.22;;;22.23;;
48241;SDS011;34041;51.812;4.622;2023-10-08T21:51:22;32.33;;;20.67;;
48241;SDS011;34041;51.812;4.622;2023-10-08T21:54:24;26.42;;;18.50;;
48241;SDS011;34041;51.812;4.622;2023-10-08T21:57:24;28.55;;;20.05;;
48241;SDS011;34041;51.812;4.622;2023-10-08T22:00:25;26.70;;;18.93;;
48241;SDS011;34041;51.812;4.622;2023-10-08T22:03:25;23.67;;;17.83;;
48241;SDS011;34041;51.812;4.622;2023-10-08T22:06:25;24.23;;;16.83;;
48241;SDS011;34041;51.812;4.622;2023-10-08T22:09:27;24.63;;;17.63;;
48241;SDS011;34041;51.812;4.622;2023-10-08T22:12:28;25.23;;;19.33;;
48241;SDS011;34041;51.812;4.622;2023-10-08T22:15:29;23.52;;;15.10;;
48241;SDS011;34041;51.812;4.622;2023-10-08T22:18:29;19.33;;;15.63;;
48241;SDS011;34041;51.812;4.622;2023-10-08T22:21:32;23.88;;;15.77;;
48241;SDS011;34041;51.812;4.622;2023-10-08T22:24:34;22.80;;;15.18;;
48241;SDS011;34041;51.812;4.622;2023-10-08T22:27:35;24.67;;;15.37;;
48241;SDS011;34041;51.812;4.622;2023-10-08T22:30:40;27.88;;;15.98;;
48241;SDS011;34041;51.812;4.622;2023-10-08T22:33:41;18.80;;;14.70;;
48241;SDS011;34041;51.812;4.622;2023-10-08T22:36:48;21.52;;;15.38;;
48241;SDS011;34041;51.812;4.622;2023-10-08T22:40:01;26.75;;;15.80;;
48241;SDS011;34041;51.812;4.622;2023-10-08T22:43:01;26.95;;;15.93;;
48241;SDS011;34041;51.812;4.622;2023-10-08T22:46:03;23.33;;;16.05;;
48241;SDS011;34041;51.812;4.622;2023-10-08T22:49:03;21.95;;;15.98;;
48241;SDS011;34041;51.812;4.622;2023-10-08T22:52:05;23.73;;;15.57;;
48241;SDS011;34041;51.812;4.622;2023-10-08T22:55:09;19.08;;;15.70;;
48241;SDS011;34041;51.812;4.622;2023-10-08T22:58:12;21.25;;;15.45;;
48241;SDS011;34041;51.812;4.622;2023-10-08T23:01:14;21.15;;;15.75;;
48241;SDS011;34041;51.812;4.622;2023-10-08T23:04:14;20.80;;;14.88;;
48241;SDS011;34041;51.812;4.622;2023-10-08T23:07:14;21.70;;;15.13;;
48241;SDS011;34041;51.812;4.622;2023-10-08T23:10:15;24.52;;;16.17;;
48241;SDS011;34041;51.812;4.622;2023-10-08T23:13:17;24.13;;;15.75;;
48241;SDS011;34041;51.812;4.622;2023-10-08T23:16:19;20.63;;;14.90;;
48241;SDS011;34041;51.812;4.622;2023-10-08T23:19:20;21.27;;;15.38;;
48241;SDS011;34041;51.812;4.622;2023-10-08T23:22:21;24.05;;;17.77;;
48241;SDS011;34041;51.812;4.622;2023-10-08T23:25:21;23.67;;;17.05;;
48241;SDS011;34041;51.812;4.622;2023-10-08T23:28:22;24.43;;;16.03;;
48241;SDS011;34041;51.812;4.622;2023-10-08T23:31:23;27.58;;;16.85;;
48241;SDS011;34041;51.812;4.622;2023-10-08T23:34:23;23.53;;;16.07;;
48241;SDS011;34041;51.812;4.622;2023-10-08T23:37:25;23.10;;;17.48;;
48241;SDS011;34041;51.812;4.622;2023-10-08T23:40:25;19.23;;;15.55;;
48241;SDS011;34041;51.812;4.622;2023-10-08T23:43:30;27.52;;;19.02;;
48241;SDS011;34041;51.812;4.622;2023-10-08T23:46:32;23.90;;;17.13;;
48241;SDS011;34041;51.812;4.622;2023-10-08T23:49:35;22.58;;;15.68;;
48241;SDS011;34041;51.812;4.622;2023-10-08T23:52:47;24.00;;;17.48;;